createdAt,value
2022-10-21T00:00:40.325Z,102136.59
2022-10-21T00:03:45.173Z,102137.41
2022-10-21T00:06:50.308Z,102126.41
2022-10-21T00:09:54.789Z,102131.50
2022-10-21T00:12:59.520Z,102129.75
2022-10-21T00:16:09.139Z,102135.69
2022-10-21T00:19:14.157Z,102130.66
2022-10-21T00:22:19.321Z,102128.94
2022-10-21T00:25:24.589Z,102127.31
2022-10-21T00:28:29.952Z,102134.97
2022-10-21T00:31:36.395Z,102117.16
2022-10-21T00:34:43.228Z,102118.84
2022-10-21T00:37:48.006Z,102120.56
2022-10-21T00:40:52.980Z,102116.31
2022-10-21T00:44:01.546Z,102117.16
2022-10-21T00:47:11.006Z,102112.91
2022-10-21T00:50:29.042Z,102111.19
2022-10-21T00:53:34.763Z,102107.81
2022-10-21T00:56:40.886Z,102100.19
2022-10-21T00:59:49.238Z,102093.38
2022-10-21T01:02:55.254Z,102088.28
2022-10-21T01:06:03.711Z,102087.44
2022-10-21T01:09:08.824Z,102085.75
2022-10-21T01:12:34.394Z,102081.50
2022-10-21T01:15:43.399Z,102088.31
2022-10-21T01:18:54.163Z,102081.50
2022-10-21T01:22:04.147Z,102088.31
2022-10-21T01:25:27.445Z,102078.13
2022-10-21T01:28:42.467Z,102071.34
2022-10-21T01:31:51.807Z,102062.84
2022-10-21T01:35:03.318Z,102079.81
2022-10-21T01:38:14.866Z,102076.41
2022-10-21T01:41:28.492Z,102081.50
2022-10-21T01:44:37.662Z,102090.00
2022-10-21T01:47:47.517Z,102090.00
2022-10-21T01:50:57.710Z,102088.31
2022-10-21T01:54:06.414Z,102078.97
2022-10-21T01:57:14.352Z,102082.38
2022-10-21T02:00:19.777Z,102090.84
2022-10-21T02:03:30.159Z,102066.25
2022-10-21T02:06:35.211Z,102075.56
2022-10-21T02:09:39.883Z,102057.75
2022-10-21T02:12:47.054Z,102056.06
2022-10-21T02:15:52.724Z,102049.25
2022-10-21T02:19:01.142Z,102043.31
2022-10-21T02:22:08.010Z,102050.09
2022-10-21T02:25:18.482Z,102035.66
2022-10-21T02:28:23.178Z,102044.16
2022-10-21T02:31:51.632Z,102038.22
2022-10-21T02:35:15.239Z,102017.00
2022-10-21T02:38:28.249Z,102042.44
2022-10-21T02:41:34.583Z,102032.25
2022-10-21T02:44:39.435Z,102033.97
2022-10-21T02:47:47.747Z,102039.88
2022-10-21T02:50:54.189Z,102033.94
2022-10-21T02:53:59.179Z,102022.91
2022-10-21T02:57:03.865Z,102032.22
2022-10-21T03:00:10.127Z,102033.03
2022-10-21T03:03:17.124Z,102037.25
2022-10-21T03:06:23.098Z,102033.84
2022-10-21T03:09:27.691Z,102047.44
2022-10-21T03:12:32.462Z,102033.03
2022-10-21T03:15:37.162Z,102024.53
2022-10-21T03:18:41.793Z,102037.25
2022-10-21T03:21:47.754Z,102029.63
2022-10-21T03:24:52.605Z,102032.16
2022-10-21T03:27:57.795Z,102028.78
2022-10-21T03:31:02.514Z,102040.66
2022-10-21T03:34:07.401Z,102040.66
2022-10-21T03:37:14.592Z,102039.78
2022-10-21T03:40:19.439Z,102042.31
2022-10-21T03:43:24.072Z,102035.56
2022-10-21T03:46:28.853Z,102035.59
2022-10-21T03:52:45.092Z,102023.69
2022-10-21T03:55:56.338Z,102032.16
2022-10-21T03:59:01.443Z,102024.53
2022-10-21T04:02:06.507Z,102018.56
2022-10-21T04:05:13.208Z,102010.94
2022-10-21T04:08:19.422Z,102024.50
2022-10-21T04:11:24.038Z,102016.03
2022-10-21T04:14:29.032Z,102011.75
2022-10-21T04:17:34.099Z,102003.28
2022-10-21T04:20:38.855Z,102011.75
2022-10-21T04:23:44.892Z,102011.72
2022-10-21T04:26:49.683Z,102019.34
2022-10-21T04:29:54.652Z,102021.06
2022-10-21T04:32:59.370Z,102013.41
2022-10-21T04:36:04.253Z,102015.13
2022-10-21T04:39:10.547Z,102021.06
2022-10-21T04:42:15.797Z,102010.88
2022-10-21T04:45:20.593Z,102011.75
2022-10-21T04:48:25.764Z,102010.91
2022-10-21T04:54:41.926Z,102010.88
2022-10-21T04:57:46.542Z,102008.31
2022-10-21T05:00:52.081Z,102005.78
2022-10-21T05:03:56.955Z,101988.78
2022-10-21T05:07:01.782Z,101993.88
2022-10-21T05:10:09.416Z,101995.59
2022-10-21T05:13:14.878Z,101981.16
2022-10-21T05:16:19.651Z,101987.09
2022-10-21T05:19:27.669Z,101996.38
2022-10-21T05:22:35.056Z,101987.91
2022-10-21T05:25:41.226Z,101985.34
2022-10-21T05:28:46.142Z,101986.22
2022-10-21T05:31:50.894Z,101975.22
2022-10-21T05:34:55.603Z,101970.97
2022-10-21T05:38:00.599Z,101960.78
2022-10-21T05:41:06.963Z,101967.56
2022-10-21T05:44:13.110Z,101965.84
2022-10-21T05:47:17.842Z,101975.19
2022-10-21T05:50:22.766Z,101972.66
2022-10-21T05:53:27.585Z,101970.13
2022-10-21T05:56:33.959Z,101971.81
2022-10-21T05:59:38.628Z,101959.09
2022-10-21T06:02:43.295Z,101959.09
2022-10-21T06:05:48.205Z,101961.63
2022-10-21T06:08:53.055Z,101966.72
2022-10-21T06:11:59.137Z,101970.94
2022-10-21T06:15:03.842Z,101970.97
2022-10-21T06:18:09.459Z,101979.41
2022-10-21T06:21:14.459Z,101969.25
2022-10-21T06:24:19.190Z,101966.75
2022-10-21T06:27:25.223Z,101972.69
2022-10-21T06:30:30.329Z,101966.72
2022-10-21T06:33:35.755Z,101969.25
2022-10-21T06:36:40.462Z,101965.06
2022-10-21T06:39:45.213Z,101974.41
2022-10-21T06:42:51.942Z,101969.28
2022-10-21T06:46:02.132Z,101972.66
2022-10-21T06:49:07.234Z,101963.38
2022-10-21T06:52:12.710Z,101959.97
2022-10-21T06:55:17.611Z,101959.13
2022-10-21T06:58:23.906Z,101961.69
2022-10-21T07:01:41.753Z,101961.69
2022-10-21T07:04:58.269Z,101960.00
2022-10-21T07:08:02.953Z,101960.00
2022-10-21T07:11:08.879Z,101965.94
2022-10-21T07:14:17.850Z,101964.28
2022-10-21T07:17:22.715Z,101960.00
2022-10-21T07:20:27.545Z,101961.75
2022-10-21T07:23:32.195Z,101969.38
2022-10-21T07:26:36.890Z,101965.97
2022-10-21T07:29:43.190Z,101974.44
2022-10-21T07:32:48.166Z,101976.16
2022-10-21T07:35:53.270Z,101975.34
2022-10-21T07:39:02.374Z,101965.97
2022-10-21T07:42:07.145Z,101968.53
2022-10-21T07:45:14.880Z,101961.75
2022-10-21T07:48:20.554Z,101969.41
2022-10-21T07:51:28.718Z,101967.72
2022-10-21T07:54:35.974Z,101968.56
2022-10-21T07:57:40.876Z,101970.25
2022-10-21T08:00:47.341Z,101963.47
2022-10-21T08:03:54.380Z,101977.91
2022-10-21T08:06:59.478Z,101958.38
2022-10-21T08:10:04.611Z,101959.22
2022-10-21T08:13:11.270Z,101965.16
2022-10-21T08:16:17.481Z,101960.94
2022-10-21T08:19:29.666Z,101957.53
2022-10-21T08:22:34.613Z,101959.25
2022-10-21T08:25:39.937Z,101961.78
2022-10-21T08:28:45.477Z,101956.75
2022-10-21T08:31:53.497Z,101952.47
2022-10-21T08:34:58.253Z,101956.75
2022-10-21T08:38:03.100Z,101947.41
2022-10-21T08:41:22.449Z,101942.31
2022-10-21T08:44:36.458Z,101948.25
2022-10-21T08:47:46.749Z,101948.25
2022-10-21T08:50:52.825Z,101948.25
2022-10-21T08:54:01.401Z,101942.28
2022-10-21T08:57:06.043Z,101942.34
2022-10-21T09:00:18.500Z,101938.91
2022-10-21T09:03:31.523Z,101928.72
2022-10-21T09:06:40.667Z,101935.53
2022-10-21T09:09:50.759Z,101927.00
2022-10-21T09:13:13.408Z,101924.47
2022-10-21T09:16:24.668Z,101921.91
2022-10-21T09:19:41.159Z,101922.72
2022-10-21T09:22:56.149Z,101918.47
2022-10-21T09:26:04.459Z,101919.28
2022-10-21T09:29:31.580Z,101915.03
2022-10-21T09:32:39.473Z,101914.19
2022-10-21T09:35:51.688Z,101894.59
2022-10-21T09:39:02.132Z,101896.28
2022-10-21T09:42:12.425Z,101897.91
2022-10-21T09:45:34.187Z,101890.25
2022-10-21T09:49:16.352Z,101883.44
2022-10-21T09:52:14.296Z,101892.72
2022-10-21T09:55:19.278Z,101885.81
2022-10-21T09:58:27.773Z,101886.63
2022-10-21T10:01:32.749Z,101881.44
2022-10-21T10:04:37.793Z,101895.00
2022-10-21T10:07:43.816Z,101891.56
2022-10-21T10:10:48.539Z,101888.09
2022-10-21T10:13:54.457Z,101874.47
2022-10-21T10:17:18.968Z,101881.25
2022-10-21T10:20:23.987Z,101871.84
2022-10-21T10:23:30.142Z,101872.59
2022-10-21T10:26:38.130Z,101869.16
2022-10-21T10:29:44.140Z,101861.41
2022-10-21T10:32:49.894Z,101863.09
2022-10-21T10:35:57.463Z,101855.41
2022-10-21T10:39:07.658Z,101845.97
2022-10-21T10:42:17.918Z,101843.34
2022-10-21T10:45:24.006Z,101842.47
2022-10-21T10:48:36.258Z,101850.13
2022-10-21T10:51:42.607Z,101845.06
2022-10-21T10:55:05.967Z,101850.13
2022-10-21T10:58:17.546Z,101847.56
2022-10-21T11:01:31.500Z,101840.63
2022-10-21T11:04:39.882Z,101842.34
2022-10-21T11:07:47.691Z,101842.34
2022-10-21T11:10:57.176Z,101837.22
2022-10-21T11:14:02.008Z,101831.25
2022-10-21T11:17:11.923Z,101831.22
2022-10-21T11:20:24.145Z,101829.50
2022-10-21T11:23:52.340Z,101820.97
2022-10-21T11:27:04.528Z,101822.59
2022-10-21T11:30:14.771Z,101827.66
2022-10-21T11:33:26.998Z,101824.25
2022-10-21T11:36:39.411Z,101819.13
2022-10-21T11:39:52.716Z,101811.47
2022-10-21T11:43:07.074Z,101808.91
2022-10-21T11:46:16.921Z,101813.13
2022-10-21T11:49:49.362Z,101816.63
2022-10-21T11:53:12.841Z,101817.38
2022-10-21T11:56:25.781Z,101821.59
2022-10-21T11:59:52.491Z,101807.88
2022-10-21T12:03:20.170Z,101821.69
2022-10-21T12:06:34.271Z,101812.22
2022-10-21T12:09:43.905Z,101801.91
2022-10-21T12:12:51.100Z,101803.53
2022-10-21T12:16:00.958Z,101802.66
2022-10-21T12:19:07.170Z,101803.44
2022-10-21T12:22:12.517Z,101805.91
2022-10-21T12:25:28.143Z,101802.47
2022-10-21T12:28:37.210Z,101797.28
2022-10-21T12:31:50.231Z,101801.59
2022-10-21T12:34:55.261Z,101791.38
2022-10-21T12:38:21.422Z,101793.81
2022-10-21T12:41:34.459Z,101794.66
2022-10-21T12:44:40.050Z,101795.41
2022-10-21T12:47:46.982Z,101788.56
2022-10-21T12:50:58.523Z,101783.44
2022-10-21T12:54:09.373Z,101784.28
2022-10-21T12:57:27.469Z,101787.72
2022-10-21T13:00:58.305Z,101789.34
2022-10-21T13:04:04.725Z,101782.59
2022-10-21T13:07:39.425Z,101783.44
2022-10-21T13:11:19.920Z,101776.63
2022-10-21T13:14:35.443Z,101774.78
2022-10-21T13:17:53.247Z,101773.16
2022-10-21T13:21:00.570Z,101771.44
2022-10-21T13:24:24.695Z,101774.00
2022-10-21T13:30:40.163Z,101774.06
2022-10-21T13:33:53.447Z,101772.38
2022-10-21T13:36:59.323Z,101773.19
2022-10-21T13:40:08.058Z,101767.31
2022-10-21T13:43:18.263Z,101766.38
2022-10-21T13:46:27.203Z,101763.88
2022-10-21T13:49:34.393Z,101752.00
2022-10-21T13:52:39.195Z,101745.16
2022-10-21T13:55:43.879Z,101747.72
2022-10-21T13:58:50.742Z,101747.91
2022-10-21T14:01:57.465Z,101746.16
2022-10-21T14:05:02.342Z,101760.69
2022-10-21T14:08:18.633Z,101747.94
2022-10-21T14:11:27.554Z,101754.72
2022-10-21T14:14:36.055Z,101750.53
2022-10-21T14:17:44.779Z,101747.91
2022-10-21T14:20:50.119Z,101750.53
2022-10-21T14:23:55.094Z,101743.81
2022-10-21T14:26:59.877Z,101745.38
2022-10-21T14:30:10.459Z,101750.50
2022-10-21T14:33:22.778Z,101747.22
2022-10-21T14:36:28.772Z,101758.31
2022-10-21T14:39:34.470Z,101758.34
2022-10-21T14:42:41.683Z,101760.13
2022-10-21T14:45:50.382Z,101756.78
2022-10-21T14:48:59.645Z,101752.63
2022-10-21T14:52:06.894Z,101750.03
2022-10-21T14:55:17.141Z,101750.94
2022-10-21T14:58:25.513Z,101751.03
2022-10-21T15:01:32.702Z,101754.53
2022-10-21T15:04:44.974Z,101745.25
2022-10-21T15:07:49.714Z,101746.88
2022-10-21T15:11:23.303Z,101755.56
2022-10-21T15:14:32.101Z,101744.50
2022-10-21T15:17:38.692Z,101747.00
2022-10-21T15:20:56.138Z,101746.25
2022-10-21T15:24:01.558Z,101749.66
2022-10-21T15:27:07.351Z,101755.66
2022-10-21T15:30:20.194Z,101750.53
2022-10-21T15:33:27.186Z,101742.09
2022-10-21T15:36:31.887Z,101748.03
2022-10-21T15:39:36.733Z,101744.78
2022-10-21T15:42:42.211Z,101761.81
2022-10-21T15:45:47.168Z,101753.22
2022-10-21T15:48:53.333Z,101754.16
2022-10-21T15:51:58.100Z,101748.19
2022-10-21T15:55:02.719Z,101750.72
2022-10-21T15:58:07.483Z,101746.47
2022-10-21T16:01:13.906Z,101741.38
2022-10-21T16:04:20.579Z,101738.94
2022-10-21T16:07:32.611Z,101744.97
2022-10-21T16:10:38.279Z,101748.38
2022-10-21T16:13:42.942Z,101745.78
2022-10-21T16:16:50.463Z,101745.78
2022-10-21T16:19:56.520Z,101745.81
2022-10-21T16:23:03.098Z,101745.91
2022-10-21T16:26:14.842Z,101734.81
2022-10-21T16:29:22.186Z,101747.56
2022-10-21T16:32:27.114Z,101745.06
2022-10-21T16:35:33.307Z,101739.06
2022-10-21T16:38:38.131Z,101733.88
2022-10-21T16:41:42.925Z,101739.97
2022-10-21T16:44:49.773Z,101739.06
2022-10-21T16:47:57.577Z,101726.31
2022-10-21T16:51:03.590Z,101736.47
2022-10-21T16:54:08.374Z,101739.88
2022-10-21T16:57:12.990Z,101731.47
2022-10-21T17:00:18.992Z,101731.41
2022-10-21T17:03:24.311Z,101735.72
2022-10-21T17:06:30.363Z,101733.16
2022-10-21T17:09:35.099Z,101736.59
2022-10-21T17:12:41.049Z,101723.81
2022-10-21T17:15:46.003Z,101734.88
2022-10-21T17:18:52.713Z,101722.97
2022-10-21T17:21:58.788Z,101719.59
2022-10-21T17:25:03.433Z,101707.66
2022-10-21T17:28:08.928Z,101710.31
2022-10-21T17:31:17.046Z,101708.66
2022-10-21T17:34:29.269Z,101704.44
2022-10-21T17:37:35.386Z,101712.91
2022-10-21T17:40:40.322Z,101705.28
2022-10-21T17:43:45.121Z,101696.81
2022-10-21T17:46:54.382Z,101702.78
2022-10-21T17:49:59.521Z,101696.81
2022-10-21T17:53:05.572Z,101696.88
2022-10-21T17:56:13.198Z,101696.88
2022-10-21T17:59:17.912Z,101704.56
2022-10-21T18:02:22.881Z,101699.38
2022-10-21T18:05:27.509Z,101693.44
2022-10-21T18:08:33.936Z,101693.44
2022-10-21T18:11:38.862Z,101694.28
2022-10-21T18:14:44.014Z,101684.03
2022-10-21T18:17:48.744Z,101683.19
2022-10-21T18:20:53.691Z,101684.88
2022-10-21T18:23:59.982Z,101678.09
2022-10-21T18:27:06.470Z,101678.97
2022-10-21T18:30:14.133Z,101676.44
2022-10-21T18:33:19.096Z,101686.63
2022-10-21T18:36:24.387Z,101677.28
2022-10-21T18:39:30.486Z,101678.97
2022-10-21T18:42:35.193Z,101680.66
2022-10-21T18:45:40.008Z,101679.81
2022-10-21T18:48:44.763Z,101682.38
2022-10-21T18:51:49.453Z,101676.38
2022-10-21T18:54:55.466Z,101678.97
2022-10-21T18:58:00.191Z,101678.09
2022-10-21T19:01:06.059Z,101682.38
2022-10-21T19:04:11.019Z,101667.88
2022-10-21T19:07:16.441Z,101680.69
2022-10-21T19:10:23.410Z,101668.84
2022-10-21T19:13:28.427Z,101671.28
2022-10-21T19:16:33.094Z,101671.31
2022-10-21T19:19:39.578Z,101664.50
2022-10-21T19:22:44.779Z,101667.91
2022-10-21T19:25:50.885Z,101672.13
2022-10-21T19:29:01.253Z,101674.69
2022-10-21T19:32:06.222Z,101672.16
2022-10-21T19:35:12.721Z,101682.34
2022-10-21T19:38:21.003Z,101678.13
2022-10-21T19:41:32.732Z,101661.09
2022-10-21T19:44:37.654Z,101666.22
2022-10-21T19:47:42.654Z,101661.94
2022-10-21T19:50:47.678Z,101671.31
2022-10-21T19:53:53.756Z,101661.97
2022-10-21T19:56:59.813Z,101665.44
2022-10-21T20:00:06.353Z,101668.91
2022-10-21T20:03:15.893Z,101656.16
2022-10-21T20:06:23.100Z,101653.69
2022-10-21T20:09:27.814Z,101657.06
2022-10-21T20:12:34.066Z,101653.69
2022-10-21T20:15:38.957Z,101652.03
2022-10-21T20:18:43.653Z,101661.38
2022-10-21T20:21:49.425Z,101658.78
2022-10-21T20:24:55.191Z,101658.81
2022-10-21T20:28:01.346Z,101651.19
2022-10-21T20:31:07.982Z,101652.78
2022-10-21T20:34:14.286Z,101654.47
2022-10-21T20:37:19.438Z,101651.94
2022-10-21T20:40:26.749Z,101649.47
2022-10-21T20:43:32.978Z,101656.31
2022-10-21T20:46:37.881Z,101647.81
2022-10-21T20:49:42.564Z,101659.72
2022-10-21T20:52:47.359Z,101657.19
2022-10-21T20:55:55.748Z,101647.00
2022-10-21T20:59:02.363Z,101655.56
2022-10-21T21:02:07.991Z,101648.84
2022-10-21T21:05:12.637Z,101648.06
2022-10-21T21:08:18.236Z,101653.09
2022-10-21T21:11:23.108Z,101648.00
2022-10-21T21:14:29.535Z,101652.25
2022-10-21T21:17:34.241Z,101650.59
2022-10-21T21:20:39.259Z,101640.41
2022-10-21T21:23:46.314Z,101634.53
2022-10-21T21:26:51.559Z,101632.00
2022-10-21T21:29:57.585Z,101620.09
2022-10-21T21:33:02.244Z,101623.50
2022-10-21T21:36:08.235Z,101627.78
2022-10-21T21:42:20.039Z,101621.88
2022-10-21T21:45:26.190Z,101616.84
2022-10-21T21:48:32.728Z,101604.06
2022-10-21T21:51:38.303Z,101614.28
2022-10-21T21:54:42.934Z,101608.31
2022-10-21T21:57:47.753Z,101608.28
2022-10-21T22:00:53.758Z,101615.88
2022-10-21T22:03:59.375Z,101596.31
2022-10-21T22:07:04.027Z,101607.34
2022-10-21T22:10:09.888Z,101598.84
2022-10-21T22:13:15.615Z,101601.41
2022-10-21T22:16:24.486Z,101599.69
2022-10-21T22:19:29.686Z,101609.88
2022-10-21T22:22:35.821Z,101617.53
2022-10-21T22:25:40.950Z,101615.81
2022-10-21T22:28:46.011Z,101599.66
2022-10-21T22:31:52.291Z,101601.38
2022-10-21T22:34:56.984Z,101599.69
2022-10-21T22:38:01.621Z,101599.69
2022-10-21T22:41:09.996Z,101603.13
2022-10-21T22:44:17.183Z,101597.16
2022-10-21T22:47:23.530Z,101601.44
2022-10-21T22:50:28.330Z,101590.34
2022-10-21T22:53:33.274Z,101588.66
2022-10-21T22:56:37.918Z,101589.53
2022-10-21T22:59:44.175Z,101590.34
2022-10-21T23:02:50.786Z,101595.44
2022-10-21T23:05:55.715Z,101583.56
2022-10-21T23:09:01.092Z,101584.41
2022-10-21T23:12:06.838Z,101580.16
2022-10-21T23:15:13.106Z,101576.78
2022-10-21T23:18:19.702Z,101561.47
2022-10-21T23:21:24.533Z,101564.88
2022-10-21T23:24:29.231Z,101557.22
2022-10-21T23:27:34.106Z,101564.88
2022-10-21T23:30:40.674Z,101567.44
2022-10-21T23:33:46.894Z,101556.47
2022-10-21T23:36:52.183Z,101547.97
2022-10-21T23:39:56.885Z,101549.69
2022-10-21T23:43:01.523Z,101552.22
2022-10-21T23:46:06.907Z,101544.59
2022-10-21T23:49:13.119Z,101547.06
2022-10-21T23:52:17.847Z,101546.28
2022-10-21T23:55:22.895Z,101543.66
2022-10-21T23:58:27.822Z,101533.47
